Time;durP1;ratioP1;P1;durP2;ratioP2;P2;SDS_P1;SDS_P2;PMS_P1;PMS_P2;Temp;Humidity;BMP_temperature;BMP_pressure;BME280_temperature;BME280_humidity;BME280_pressure;Samples;Min_cycle;Max_cycle;Signal;HPM_P1;HPM_P2
2023/05/26 00:01:22;;;;;;;3.73;3.00;;;18.10;61.30;17.20;96957.00;;;;6039540;23;20874;-78
2023/05/26 00:03:50;;;;;;;3.50;2.87;;;18.10;61.30;17.20;96964.00;;;;6039767;23;20780;-78
2023/05/26 00:06:20;;;;;;;3.07;2.67;;;18.10;61.40;17.20;96959.00;;;;6040916;23;20180;-79
2023/05/26 00:08:49;;;;;;;3.40;3.00;;;18.10;61.30;17.20;96960.00;;;;6066499;23;20183;-79
2023/05/26 00:11:17;;;;;;;2.67;2.40;;;18.10;61.10;17.30;96959.00;;;;6066117;23;20243;-78
2023/05/26 00:13:44;;;;;;;3.27;2.70;;;18.10;61.10;17.30;96962.00;;;;6016995;23;20274;-79
2023/05/26 00:16:11;;;;;;;3.00;2.60;;;18.10;61.10;17.30;96957.00;;;;6040405;23;20175;-78
2023/05/26 00:18:39;;;;;;;3.37;2.60;;;18.10;61.10;17.30;96968.00;;;;6062051;23;20200;-78
2023/05/26 00:21:06;;;;;;;3.77;2.70;;;18.20;61.20;17.30;96964.00;;;;6036700;23;20563;-77
2023/05/26 00:23:34;;;;;;;2.97;2.70;;;18.20;61.20;17.30;96965.00;;;;6060791;23;20198;-78
2023/05/26 00:26:03;;;;;;;3.60;2.57;;;18.20;61.20;17.40;96970.00;;;;6035788;23;20223;-78
2023/05/26 00:28:30;;;;;;;4.87;2.60;;;18.20;61.00;17.40;96968.00;;;;6036426;23;20291;-77
2023/05/26 00:30:57;;;;;;;4.97;2.60;;;18.20;60.80;17.40;96969.00;;;;6060565;23;20605;-79
2023/05/26 00:33:25;;;;;;;3.60;2.53;;;18.20;60.80;17.50;96966.00;;;;6037669;23;20199;-79
2023/05/26 00:35:52;;;;;;;3.13;2.67;;;18.30;60.80;17.50;96967.00;;;;6037852;23;20172;-79
2023/05/26 00:38:19;;;;;;;2.70;2.50;;;18.30;60.70;17.50;96966.00;;;;6065703;23;20255;-79
2023/05/26 00:40:46;;;;;;;2.90;2.60;;;18.30;60.50;17.60;96967.00;;;;6066821;23;20254;-78
2023/05/26 00:43:15;;;;;;;2.77;2.50;;;18.30;60.50;17.60;96963.00;;;;6065842;23;20195;-79
2023/05/26 00:45:42;;;;;;;2.43;2.23;;;18.40;60.50;17.60;96964.00;;;;6040485;23;20176;-79
2023/05/26 00:48:10;;;;;;;3.37;2.83;;;18.40;60.40;17.70;96958.00;;;;6040765;23;20260;-78
2023/05/26 00:50:38;;;;;;;3.93;3.07;;;18.40;60.40;17.70;96959.00;;;;6065805;23;20536;-78
2023/05/26 00:53:05;;;;;;;2.60;2.40;;;18.50;60.30;17.70;96962.00;;;;6066447;23;20203;-79
2023/05/26 00:55:33;;;;;;;3.60;2.53;;;18.50;60.10;17.80;96958.00;;;;6063381;23;20255;-79
2023/05/26 00:58:01;;;;;;;2.80;2.60;;;18.50;59.90;17.80;96954.00;;;;6038918;23;20697;-78
2023/05/26 01:00:31;;;;;;;2.63;2.13;;;18.60;59.80;17.80;96953.00;;;;6065747;23;20260;-79
2023/05/26 01:02:59;;;;;;;3.33;2.57;;;18.60;59.70;17.90;96949.00;;;;6066357;23;20187;-78
2023/05/26 01:05:27;;;;;;;3.10;2.27;;;18.70;59.70;17.90;96950.00;;;;6065771;23;20173;-78
2023/05/26 01:07:54;;;;;;;3.40;2.47;;;18.70;59.70;17.90;96952.00;;;;6065514;23;20653;-77
2023/05/26 01:10:22;;;;;;;4.57;2.90;;;18.70;59.50;17.90;96952.00;;;;6042814;23;20200;-79
2023/05/26 01:12:56;;;;;;;2.63;2.43;;;18.70;59.60;18.00;96958.00;;;;6068859;23;20314;-78
2023/05/26 01:15:34;;;;;;;2.63;2.43;;;18.70;59.50;18.00;96950.00;;;;6043979;23;20251;-78
2023/05/26 01:18:10;;;;;;;2.80;2.40;;;18.80;59.30;18.00;96948.00;;;;6067903;23;20199;-79
2023/05/26 01:20:45;;;;;;;2.80;2.53;;;18.80;59.20;18.10;96952.00;;;;6066663;23;20172;-79
2023/05/26 01:23:37;;;;;;;2.80;2.23;;;18.80;59.30;18.10;96951.00;;;;6067732;23;20653;-79
2023/05/26 01:26:31;;;;;;;2.73;2.53;;;18.90;59.20;18.10;96946.00;;;;6067740;23;20259;-78
2023/05/26 01:29:09;;;;;;;2.60;2.40;;;18.90;59.00;18.10;96945.00;;;;6021599;23;20608;-79
2023/05/26 01:31:39;;;;;;;3.20;2.40;;;18.90;58.80;18.20;96952.00;;;;6043429;23;20165;-79
2023/05/26 01:34:06;;;;;;;4.53;2.70;;;18.90;58.90;18.20;96949.00;;;;6067598;23;20287;-79
2023/05/26 01:36:34;;;;;;;2.60;2.40;;;19.00;58.90;18.20;96952.00;;;;6067991;23;20176;-79
2023/05/26 01:39:01;;;;;;;2.87;2.60;;;19.00;58.80;18.20;96947.00;;;;6040196;23;20176;-79
2023/05/26 01:41:42;;;;;;;2.63;2.43;;;19.00;58.80;18.20;96958.00;;;;6064202;23;20184;-78
2023/05/26 01:44:21;;;;;;;4.10;3.10;;;19.00;58.90;18.30;96958.00;;;;6064468;23;20191;-78
2023/05/26 01:46:52;;;;;;;2.97;2.67;;;19.00;59.00;18.30;96961.00;;;;6015182;23;20258;-79
2023/05/26 01:49:21;;;;;;;2.70;2.50;;;19.10;58.90;18.30;96967.00;;;;6065652;23;20174;-79
2023/05/26 01:51:55;;;;;;;3.23;2.57;;;19.10;58.70;18.30;96962.00;;;;6065961;23;20176;-78
2023/05/26 01:54:25;;;;;;;2.50;2.30;;;19.10;58.50;18.30;96968.00;;;;6066149;23;20275;-79
2023/05/26 01:56:54;;;;;;;2.70;2.50;;;19.10;58.40;18.30;96967.00;;;;6066738;23;20156;-78
2023/05/26 01:59:25;;;;;;;2.80;2.60;;;19.10;58.40;18.30;96963.00;;;;6066771;23;20168;-79
2023/05/26 02:01:52;;;;;;;2.70;2.50;;;19.10;58.40;18.30;96966.00;;;;6043260;23;20254;-79
2023/05/26 02:04:19;;;;;;;2.50;2.30;;;19.10;58.30;18.30;96966.00;;;;6068192;23;20741;-79
2023/05/26 02:06:50;;;;;;;3.70;2.77;;;19.10;58.20;18.30;96958.00;;;;6068458;23;20271;-79
2023/05/26 02:09:18;;;;;;;2.97;2.60;;;19.10;58.20;18.20;96955.00;;;;6067373;23;20172;-79
2023/05/26 02:11:45;;;;;;;2.43;2.23;;;19.10;58.10;18.20;96963.00;;;;6042340;23;20203;-79
2023/05/26 02:14:12;;;;;;;3.53;2.67;;;19.00;58.10;18.20;96963.00;;;;6042319;23;20294;-79
2023/05/26 02:16:43;;;;;;;3.07;2.77;;;19.00;58.10;18.10;96959.00;;;;6067265;23;20701;-78
2023/05/26 02:19:10;;;;;;;3.83;2.60;;;19.00;58.00;18.10;96966.00;;;;6064922;23;20711;-79
2023/05/26 02:21:37;;;;;;;3.20;2.47;;;19.00;58.00;18.00;96958.00;;;;6039826;23;20180;-79
2023/05/26 02:24:05;;;;;;;3.53;2.83;;;18.90;57.90;18.00;96960.00;;;;6065112;23;20204;-78
2023/05/26 02:26:33;;;;;;;4.13;2.70;;;18.90;58.00;17.90;96966.00;;;;6064205;23;20176;-78
2023/05/26 02:29:01;;;;;;;2.67;2.47;;;18.80;57.90;17.90;96960.00;;;;6065873;23;20186;-78
2023/05/26 02:31:28;;;;;;;2.73;2.53;;;18.80;58.00;17.90;96955.00;;;;6064574;23;20203;-79
2023/05/26 02:33:57;;;;;;;4.00;2.97;;;18.80;58.10;17.80;96963.00;;;;6039825;23;20278;-78
2023/05/26 02:36:25;;;;;;;2.90;2.67;;;18.70;58.10;17.80;96953.00;;;;6064072;23;20214;-79
2023/05/26 02:38:52;;;;;;;4.33;3.30;;;18.70;58.20;17.80;96955.00;;;;6039779;23;20263;-77
2023/05/26 02:41:19;;;;;;;3.10;2.80;;;18.70;58.30;17.70;96951.00;;;;6062603;23;20757;-78
2023/05/26 02:43:46;;;;;;;4.10;3.13;;;18.60;58.20;17.70;96960.00;;;;6036869;23;20198;-77
2023/05/26 02:46:14;;;;;;;4.43;2.80;;;18.60;58.30;17.60;96960.00;;;;6063685;23;20211;-78
2023/05/26 02:48:42;;;;;;;2.80;2.60;;;18.50;58.30;17.60;96957.00;;;;6037580;23;20520;-78
2023/05/26 02:51:10;;;;;;;3.00;2.70;;;18.50;58.30;17.50;96950.00;;;;6062567;23;20200;-78
2023/05/26 02:53:40;;;;;;;3.40;2.73;;;18.50;58.30;17.50;96957.00;;;;6062328;23;20202;-78
2023/05/26 02:56:07;;;;;;;3.50;2.73;;;18.40;58.30;17.40;96960.00;;;;6038955;23;20175;-78
2023/05/26 02:58:35;;;;;;;3.30;2.90;;;18.40;58.40;17.40;96957.00;;;;6064075;23;20179;-77
2023/05/26 03:01:02;;;;;;;4.73;3.00;;;18.30;58.40;17.30;96964.00;;;;6063775;23;20182;-78
2023/05/26 03:03:30;;;;;;;3.10;2.80;;;18.30;58.40;17.20;96966.00;;;;6063977;23;20188;-78
2023/05/26 03:05:58;;;;;;;3.43;2.93;;;18.20;58.40;17.20;96970.00;;;;6064375;23;20868;-78
2023/05/26 03:08:27;;;;;;;3.23;2.90;;;18.10;58.40;17.10;96972.00;;;;6065266;23;20180;-77
2023/05/26 03:10:55;;;;;;;2.93;2.73;;;18.10;58.50;17.10;96968.00;;;;6038282;23;20196;-78
2023/05/26 03:13:22;;;;;;;3.13;2.73;;;18.00;58.60;17.10;96971.00;;;;6063747;23;20192;-78
2023/05/26 03:15:50;;;;;;;3.70;2.73;;;18.00;58.60;17.00;96968.00;;;;6039311;23;20208;-78
2023/05/26 03:18:17;;;;;;;2.70;2.50;;;18.00;58.80;17.00;96964.00;;;;6039002;23;20173;-77
2023/05/26 03:20:46;;;;;;;3.50;3.20;;;17.90;58.80;17.00;96965.00;;;;6064312;23;20184;-78
2023/05/26 03:23:14;;;;;;;5.00;3.17;;;17.90;58.80;17.00;96964.00;;;;6064755;23;20204;-78
2023/05/26 03:25:43;;;;;;;3.53;3.23;;;17.90;58.80;16.90;96972.00;;;;6059703;23;20188;-79
2023/05/26 03:28:11;;;;;;;2.97;2.73;;;17.90;58.90;16.90;96976.00;;;;6065421;23;20255;-78
2023/05/26 03:30:39;;;;;;;3.23;2.70;;;17.80;58.90;16.80;96980.00;;;;6062051;23;20206;-78
2023/05/26 03:33:06;;;;;;;4.10;2.83;;;17.80;59.50;16.80;96978.00;;;;6063819;23;20604;-78
2023/05/26 03:35:33;;;;;;;4.20;3.53;;;17.80;59.00;16.80;96983.00;;;;6063836;23;20251;-78
2023/05/26 03:38:00;;;;;;;3.70;3.10;;;17.80;59.00;16.80;96978.00;;;;6063217;23;20204;-78
2023/05/26 03:40:28;;;;;;;3.73;3.10;;;17.70;59.00;16.80;96981.00;;;;6037308;23;20191;-78
2023/05/26 03:42:56;;;;;;;2.83;2.30;;;17.70;59.00;16.70;96984.00;;;;6063069;23;20267;-77
2023/05/26 03:45:24;;;;;;;4.07;2.67;;;17.70;59.10;16.70;96971.00;;;;6039616;23;20529;-78
2023/05/26 03:47:51;;;;;;;7.87;2.97;;;17.70;59.20;16.70;96976.00;;;;6065134;23;20244;-78
2023/05/26 03:50:18;;;;;;;3.77;3.00;;;17.60;59.20;16.70;96975.00;;;;6065772;23;20267;-78
2023/05/26 03:52:46;;;;;;;3.67;3.20;;;17.60;59.30;16.70;96976.00;;;;6065151;23;20531;-78
2023/05/26 03:55:17;;;;;;;3.77;2.73;;;17.60;59.30;16.60;96984.00;;;;6065535;23;20175;-78
2023/05/26 03:57:45;;;;;;;3.97;2.90;;;17.60;59.40;16.60;96992.00;;;;6066775;23;20175;-77
2023/05/26 04:00:16;;;;;;;3.10;2.63;;;17.60;59.60;16.60;96984.00;;;;6068090;23;20172;-77
2023/05/26 04:02:44;;;;;;;2.90;2.70;;;17.60;59.80;16.60;96977.00;;;;6070367;23;20626;-78
2023/05/26 04:05:11;;;;;;;3.43;2.80;;;17.50;59.70;16.60;96982.00;;;;6067456;23;20176;-78
2023/05/26 04:07:38;;;;;;;4.33;3.40;;;17.50;59.70;16.60;96984.00;;;;6067072;23;20284;-78
2023/05/26 04:10:06;;;;;;;3.20;2.90;;;17.50;59.80;16.60;96985.00;;;;6066713;23;20232;-78
2023/05/26 04:12:34;;;;;;;4.03;2.67;;;17.50;60.00;16.60;96983.00;;;;6066394;23;20267;-78
2023/05/26 04:15:01;;;;;;;3.87;2.73;;;17.50;60.90;16.60;96986.00;;;;6065107;23;20575;-78
2023/05/26 04:17:30;;;;;;;2.80;2.60;;;17.50;60.10;16.50;96992.00;;;;6065335;23;20178;-78
2023/05/26 04:19:57;;;;;;;3.23;2.93;;;17.50;60.20;16.50;96992.00;;;;6063291;23;20256;-78
2023/05/26 04:22:26;;;;;;;3.33;2.63;;;17.50;60.20;16.50;97006.00;;;;6063244;23;20638;-78
2023/05/26 04:24:53;;;;;;;3.17;2.87;;;17.50;60.40;16.50;97004.00;;;;6063717;23;20704;-78
2023/05/26 04:27:20;;;;;;;3.10;2.80;;;17.50;60.40;16.50;97005.00;;;;6064466;23;20519;-78
2023/05/26 04:29:48;;;;;;;2.97;2.70;;;17.50;60.40;16.50;97002.00;;;;6066688;23;20176;-78
2023/05/26 04:32:16;;;;;;;3.73;3.30;;;17.50;60.60;16.50;97008.00;;;;6064035;23;20192;-80
2023/05/26 04:34:45;;;;;;;3.57;2.90;;;17.40;60.70;16.50;97007.00;;;;6065279;23;20264;-79
2023/05/26 04:37:12;;;;;;;4.83;2.80;;;17.50;60.80;16.50;97011.00;;;;6063459;23;20180;-79
2023/05/26 04:39:40;;;;;;;4.33;3.37;;;17.50;60.80;16.60;97010.00;;;;6065268;23;20535;-79
2023/05/26 04:42:07;;;;;;;4.00;3.60;;;17.50;60.80;16.60;97011.00;;;;6063151;23;20183;-80
2023/05/26 04:44:37;;;;;;;5.47;3.53;;;17.50;60.90;16.60;97006.00;;;;6064993;23;20741;-79
2023/05/26 04:47:08;;;;;;;3.60;2.70;;;17.50;61.00;16.60;97009.00;;;;6065042;23;20650;-79
2023/05/26 04:49:37;;;;;;;3.53;3.20;;;17.50;61.10;16.60;97010.00;;;;6067411;23;20202;-80
2023/05/26 04:52:08;;;;;;;5.20;3.13;;;17.50;61.30;16.70;97016.00;;;;6066860;23;20231;-79
2023/05/26 04:54:40;;;;;;;3.27;2.70;;;17.60;61.20;16.70;97012.00;;;;6065086;23;20198;-78
2023/05/26 04:57:08;;;;;;;3.43;2.90;;;17.60;61.20;16.70;97007.00;;;;6067870;23;20156;-80
2023/05/26 04:59:37;;;;;;;3.10;2.80;;;17.60;61.30;16.70;97012.00;;;;6066124;23;20255;-79
2023/05/26 05:02:06;;;;;;;3.97;3.17;;;17.60;61.40;16.70;97016.00;;;;6066662;23;20259;-80
2023/05/26 05:04:33;;;;;;;4.27;3.10;;;17.60;61.40;16.80;97005.00;;;;6066811;23;20203;-81
2023/05/26 05:07:00;;;;;;;3.10;2.80;;;17.60;61.30;16.80;97015.00;;;;6066104;23;20240;-80
2023/05/26 05:09:29;;;;;;;3.60;3.00;;;17.60;61.30;16.80;97016.00;;;;6066385;23;20180;-80
2023/05/26 05:11:57;;;;;;;3.30;3.00;;;17.60;61.40;16.80;97015.00;;;;6068410;23;20206;-81
2023/05/26 05:14:24;;;;;;;2.73;2.53;;;17.70;61.70;16.80;97021.00;;;;6069040;23;20279;-81
2023/05/26 05:16:52;;;;;;;3.83;2.63;;;17.70;61.60;16.90;97022.00;;;;6069064;23;20260;-79
2023/05/26 05:19:19;;;;;;;3.10;2.80;;;17.70;61.40;16.90;97012.00;;;;6068416;23;20645;-81
2023/05/26 05:21:47;;;;;;;3.47;2.90;;;17.70;61.40;16.90;97014.00;;;;6069801;23;20243;-78
2023/05/26 05:24:14;;;;;;;3.50;2.90;;;17.80;61.70;17.00;97019.00;;;;6065661;23;20204;-80
2023/05/26 05:26:43;;;;;;;3.53;2.60;;;17.80;61.50;17.00;97017.00;;;;6066855;23;20195;-82
2023/05/26 05:29:10;;;;;;;3.90;3.07;;;17.80;61.60;17.00;97016.00;;;;6070749;23;20203;-81
2023/05/26 05:31:38;;;;;;;4.60;2.97;;;17.90;61.80;17.10;97016.00;;;;6069817;23;20207;-82
2023/05/26 05:34:06;;;;;;;3.53;3.23;;;17.90;61.70;17.10;97014.00;;;;6067672;23;20200;-81
2023/05/26 05:36:33;;;;;;;5.60;3.30;;;17.90;61.80;17.10;97021.00;;;;6064803;23;20172;-79
2023/05/26 05:39:01;;;;;;;3.40;2.97;;;17.90;62.00;17.20;97027.00;;;;6065630;23;20176;-80
2023/05/26 05:41:29;;;;;;;3.40;2.70;;;18.00;62.00;17.20;97017.00;;;;6062132;23;20211;-79
2023/05/26 05:43:57;;;;;;;4.03;3.00;;;18.00;62.00;17.20;97022.00;;;;6067459;23;20192;-79
2023/05/26 05:46:25;;;;;;;3.47;2.77;;;18.00;62.20;17.30;97025.00;;;;6070130;23;20211;-79
2023/05/26 05:48:52;;;;;;;6.13;3.30;;;18.10;62.00;17.30;97026.00;;;;6067972;23;20717;-79
2023/05/26 05:51:19;;;;;;;3.20;2.90;;;18.10;61.90;17.30;97027.00;;;;6070182;23;20737;-79
2023/05/26 05:53:47;;;;;;;3.13;2.70;;;18.10;61.90;17.40;97030.00;;;;6070512;23;20196;-80
2023/05/26 05:56:14;;;;;;;8.40;3.20;;;18.20;61.90;17.50;97027.00;;;;6069276;23;20180;-80
2023/05/26 05:58:41;;;;;;;5.10;3.53;;;18.20;62.00;17.50;97029.00;;;;6069380;23;20553;-79
2023/05/26 06:01:13;;;;;;;3.33;3.03;;;18.30;62.00;17.50;97029.00;;;;6070004;23;20252;-79
2023/05/26 06:03:41;;;;;;;3.10;2.80;;;18.30;61.80;17.60;97038.00;;;;6071682;23;20275;-80
2023/05/26 06:06:08;;;;;;;4.63;3.20;;;18.40;61.60;17.60;97035.00;;;;6070567;23;20247;-80
2023/05/26 06:08:38;;;;;;;3.63;2.73;;;18.40;61.80;17.70;97035.00;;;;6046433;23;20176;-80
2023/05/26 06:11:06;;;;;;;5.50;3.20;;;18.50;61.60;17.80;97034.00;;;;6072338;23;20212;-80
2023/05/26 06:13:34;;;;;;;4.77;3.17;;;18.50;61.50;17.80;97033.00;;;;6071316;23;20192;-79
2023/05/26 06:16:01;;;;;;;4.63;3.17;;;18.60;61.50;17.90;97039.00;;;;6069466;23;20176;-79
2023/05/26 06:18:30;;;;;;;5.27;3.60;;;18.60;61.40;18.00;97040.00;;;;6070725;23;20172;-80
2023/05/26 06:20:57;;;;;;;3.90;3.37;;;18.70;61.50;18.00;97035.00;;;;6069942;23;20267;-80
2023/05/26 06:23:25;;;;;;;5.43;3.40;;;18.70;61.60;18.10;97039.00;;;;6068225;23;20738;-79
2023/05/26 06:25:52;;;;;;;3.87;3.20;;;18.80;62.00;18.20;97037.00;;;;6069812;23;20211;-79
2023/05/26 06:28:19;;;;;;;4.70;3.13;;;18.90;62.40;18.20;97038.00;;;;6069341;23;20247;-79
2023/05/26 06:30:47;;;;;;;4.53;2.90;;;18.90;62.00;18.30;97047.00;;;;6071646;23;20231;-78
2023/05/26 06:33:14;;;;;;;4.83;4.07;;;19.00;61.90;18.40;97046.00;;;;6070234;23;20236;-80
2023/05/26 06:35:43;;;;;;;3.40;3.07;;;19.00;61.80;18.40;97049.00;;;;6071812;23;20256;-79
2023/05/26 06:38:10;;;;;;;4.40;3.30;;;19.10;61.70;18.50;97040.00;;;;6047169;23;20256;-80
2023/05/26 06:40:38;;;;;;;3.20;2.93;;;19.10;61.70;18.60;97046.00;;;;6046090;23;20236;-78
2023/05/26 06:43:06;;;;;;;3.47;2.70;;;19.20;61.90;18.70;97042.00;;;;6045280;23;20200;-79
2023/05/26 06:45:34;;;;;;;3.80;3.43;;;19.30;62.30;18.70;97040.00;;;;6073712;23;20172;-80
2023/05/26 06:48:01;;;;;;;4.00;3.67;;;19.40;62.50;18.80;97045.00;;;;6047686;23;20176;-82
2023/05/26 06:50:30;;;;;;;4.53;3.60;;;19.50;62.90;18.90;97047.00;;;;6078570;23;20510;-81
2023/05/26 06:52:59;;;;;;;4.20;3.60;;;19.50;62.90;19.00;97047.00;;;;6064878;23;20238;-81
2023/05/26 06:55:26;;;;;;;3.73;3.43;;;19.60;62.70;19.10;97047.00;;;;6087354;23;20172;-81
2023/05/26 06:57:53;;;;;;;4.27;3.27;;;19.70;62.60;19.20;97052.00;;;;6078746;23;20736;-82
2023/05/26 07:00:23;;;;;;;4.80;4.07;;;19.80;62.60;19.30;97053.00;;;;6076218;23;20194;-82
2023/05/26 07:02:50;;;;;;;3.90;3.40;;;19.80;62.40;19.40;97056.00;;;;6052512;23;20203;-81
2023/05/26 07:05:17;;;;;;;5.33;3.47;;;20.00;62.50;19.50;97061.00;;;;6080076;23;20527;-80
2023/05/26 07:07:45;;;;;;;4.43;3.50;;;20.10;62.20;19.70;97067.00;;;;6079249;23;20654;-81
2023/05/26 07:10:13;;;;;;;5.87;3.10;;;20.20;62.00;19.80;97067.00;;;;6051271;23;20196;-83
2023/05/26 07:12:42;;;;;;;5.13;3.57;;;20.30;61.60;20.00;97066.00;;;;6070999;23;20228;-83
2023/05/26 07:15:11;;;;;;;3.70;3.30;;;20.50;61.60;20.20;97065.00;;;;6046495;23;20183;-81
2023/05/26 07:17:38;;;;;;;5.73;3.30;;;20.60;61.30;20.40;97061.00;;;;6076897;23;20186;-80
2023/05/26 07:20:07;;;;;;;4.10;3.70;;;20.80;61.30;20.50;97071.00;;;;6074928;23;20237;-82
2023/05/26 07:22:34;;;;;;;3.60;3.30;;;21.00;61.10;20.70;97075.00;;;;6077107;23;20202;-81
2023/05/26 07:25:02;;;;;;;4.07;3.33;;;21.10;60.80;20.80;97063.00;;;;6077365;23;20219;-81
2023/05/26 07:27:30;;;;;;;3.50;3.13;;;21.30;60.50;21.00;97065.00;;;;6050657;23;20187;-81
2023/05/26 07:29:58;;;;;;;4.03;3.67;;;21.40;60.60;21.20;97066.00;;;;6075643;23;20192;-81
2023/05/26 07:32:26;;;;;;;4.10;3.43;;;21.60;60.70;21.30;97073.00;;;;6050637;23;20215;-81
2023/05/26 07:34:54;;;;;;;4.07;2.80;;;21.80;60.30;21.50;97067.00;;;;6049519;23;20223;-82
2023/05/26 07:37:22;;;;;;;3.73;2.97;;;21.90;59.90;21.70;97068.00;;;;6047438;23;20172;-82
2023/05/26 07:39:49;;;;;;;4.87;3.10;;;22.10;59.70;21.80;97063.00;;;;6049601;23;20172;-82
2023/05/26 07:42:16;;;;;;;3.63;3.03;;;22.30;59.40;22.00;97076.00;;;;6075515;23;20180;-81
2023/05/26 07:44:45;;;;;;;5.43;3.27;;;22.40;59.10;22.20;97071.00;;;;6074939;23;20297;-80
2023/05/26 07:47:12;;;;;;;3.70;2.77;;;22.60;58.90;22.30;97073.00;;;;6074828;23;20656;-79
2023/05/26 07:49:40;;;;;;;3.70;3.30;;;22.70;58.70;22.50;97071.00;;;;6046861;23;20182;-80
2023/05/26 07:52:08;;;;;;;4.97;3.07;;;22.90;58.40;22.60;97067.00;;;;6073517;23;20704;-81
2023/05/26 07:54:35;;;;;;;4.97;3.53;;;23.00;57.80;22.70;97072.00;;;;6074608;23;20718;-81
2023/05/26 07:57:02;;;;;;;3.63;3.23;;;23.20;57.80;22.90;97067.00;;;;6072911;23;20195;-80
2023/05/26 07:59:30;;;;;;;4.50;3.53;;;23.30;57.50;23.00;97076.00;;;;6043258;23;20825;-79
2023/05/26 08:01:59;;;;;;;4.60;3.20;;;23.50;57.10;23.20;97067.00;;;;6042848;23;20196;-79
2023/05/26 08:04:26;;;;;;;3.67;3.33;;;23.60;56.90;23.40;97075.00;;;;6068429;23;20265;-79
2023/05/26 08:06:54;;;;;;;3.23;2.93;;;23.70;56.50;23.50;97075.00;;;;6043455;23;20198;-80
2023/05/26 08:09:21;;;;;;;4.27;3.13;;;23.90;55.90;23.70;97078.00;;;;6069769;23;20211;-80
2023/05/26 08:11:49;;;;;;;4.60;3.23;;;24.00;55.80;23.80;97082.00;;;;6044663;23;20277;-78
2023/05/26 08:14:17;;;;;;;3.47;3.13;;;24.20;55.50;23.90;97076.00;;;;6071004;23;20225;-79
2023/05/26 08:16:45;;;;;;;3.63;2.90;;;24.30;55.30;24.10;97067.00;;;;6071528;23;20251;-80
2023/05/26 08:19:15;;;;;;;3.57;3.03;;;24.40;55.10;24.20;97072.00;;;;6072207;23;20180;-80
2023/05/26 08:21:43;;;;;;;4.03;2.97;;;24.60;54.90;24.30;97073.00;;;;6024647;23;20189;-80
2023/05/26 08:24:10;;;;;;;4.07;3.50;;;24.70;54.60;24.40;97081.00;;;;6072446;23;20277;-82
2023/05/26 08:26:37;;;;;;;4.70;3.63;;;24.80;54.50;24.60;97076.00;;;;6051012;23;20265;-80
2023/05/26 08:29:06;;;;;;;5.90;3.50;;;24.90;54.40;24.70;97077.00;;;;6079994;23;20207;-81
2023/05/26 08:31:33;;;;;;;3.33;3.03;;;25.10;54.20;24.80;97076.00;;;;6079139;23;20172;-81
2023/05/26 08:34:00;;;;;;;4.50;3.10;;;25.20;53.80;25.00;97076.00;;;;6081010;23;20203;-81
2023/05/26 08:36:29;;;;;;;4.10;3.63;;;25.30;53.60;25.10;97081.00;;;;6054977;23;20183;-80
2023/05/26 08:38:56;;;;;;;3.60;3.30;;;25.40;53.50;25.20;97080.00;;;;6078217;23;20198;-81
2023/05/26 08:41:33;;;;;;;3.23;2.93;;;25.60;53.60;25.40;97085.00;;;;6074326;23;20199;-81
2023/05/26 08:44:05;;;;;;;3.97;3.57;;;25.70;53.20;25.50;97083.00;;;;6074504;23;20218;-81
2023/05/26 08:46:34;;;;;;;3.43;3.13;;;25.80;53.20;25.70;97083.00;;;;6076357;23;20220;-81
2023/05/26 08:49:03;;;;;;;3.43;2.90;;;26.00;52.70;25.80;97085.00;;;;6051776;23;20627;-81
2023/05/26 08:51:37;;;;;;;3.83;3.30;;;26.10;52.70;25.90;97089.00;;;;6080103;23;20176;-80
2023/05/26 08:54:04;;;;;;;5.97;3.77;;;26.30;52.50;26.10;97090.00;;;;6078377;23;20195;-81
2023/05/26 08:56:33;;;;;;;5.27;3.50;;;26.40;52.40;26.20;97088.00;;;;6078960;23;20192;-81
2023/05/26 08:59:04;;;;;;;4.53;3.17;;;26.60;52.10;26.30;97093.00;;;;6055659;23;20176;-80
2023/05/26 09:01:32;;;;;;;3.60;3.30;;;26.70;51.90;26.50;97091.00;;;;6033070;23;20168;-81
2023/05/26 09:03:59;;;;;;;3.93;3.37;;;26.80;51.40;26.60;97080.00;;;;6051710;23;20203;-81
2023/05/26 09:06:26;;;;;;;3.70;3.37;;;26.90;51.10;26.70;97087.00;;;;6046140;23;20180;-81
2023/05/26 09:08:55;;;;;;;3.87;3.47;;;27.10;50.90;26.90;97079.00;;;;6078341;23;20176;-80
2023/05/26 09:11:25;;;;;;;3.70;3.40;;;27.20;50.40;27.00;97079.00;;;;6079841;23;20717;-81
2023/05/26 09:13:55;;;;;;;4.63;3.57;;;27.30;50.30;27.10;97079.00;;;;6019928;23;20227;-81
2023/05/26 09:16:27;;;;;;;4.20;3.17;;;27.40;50.30;27.30;97081.00;;;;6043099;23;20208;-82
2023/05/26 09:18:59;;;;;;;4.67;3.37;;;27.60;49.90;27.40;97092.00;;;;6068010;23;20168;-81
2023/05/26 09:21:27;;;;;;;3.53;2.73;;;27.70;50.10;27.50;97092.00;;;;6074723;23;20568;-81
2023/05/26 09:23:58;;;;;;;3.30;3.00;;;27.80;50.10;27.70;97094.00;;;;6053417;23;20212;-80
2023/05/26 09:26:34;;;;;;;4.63;3.40;;;28.00;49.60;27.80;97092.00;;;;6080256;23;20202;-81
2023/05/26 09:29:04;;;;;;;3.38;3.10;;;28.20;49.10;27.90;97088.00;;;;6075385;23;20179;-81
2023/05/26 09:31:39;;;;;;;3.55;2.95;;;28.30;49.50;28.10;97091.00;;;;6070203;23;20164;-81
2023/05/26 09:34:10;;;;;;;4.38;3.20;;;28.50;48.90;28.20;97091.00;;;;6069652;23;20204;-81
2023/05/26 09:36:39;;;;;;;3.75;2.88;;;28.60;48.80;28.40;97087.00;;;;6070818;23;20608;-81
2023/05/26 09:39:10;;;;;;;5.93;3.40;;;28.80;48.50;28.50;97096.00;;;;6066511;23;20263;-82
2023/05/26 09:41:39;;;;;;;4.35;3.10;;;29.00;47.50;28.60;97087.00;;;;6040628;23;20176;-82
2023/05/26 09:44:12;;;;;;;3.70;2.88;;;29.10;47.60;28.70;97090.00;;;;6065316;23;20381;-81
2023/05/26 09:46:41;;;;;;;3.10;2.78;;;29.30;47.00;28.90;97094.00;;;;6042062;23;20176;-81
2023/05/26 09:49:13;;;;;;;3.38;3.08;;;29.50;47.70;29.00;97098.00;;;;6066991;23;20182;-81
2023/05/26 09:51:41;;;;;;;3.83;2.75;;;29.70;47.60;29.10;97095.00;;;;6066655;23;20183;-81
2023/05/26 09:54:12;;;;;;;3.70;2.70;;;29.90;47.50;29.20;97096.00;;;;6066875;23;20236;-82
2023/05/26 09:56:52;;;;;;;4.63;3.13;;;30.10;47.30;29.40;97099.00;;;;6068500;23;20194;-83
2023/05/26 09:59:21;;;;;;;3.53;2.95;;;30.20;46.00;29.50;97094.00;;;;6068809;23;20161;-82
2023/05/26 10:01:52;;;;;;;2.63;2.42;;;30.40;46.20;29.70;97098.00;;;;6020162;23;20180;-81
2023/05/26 10:04:22;;;;;;;2.95;2.67;;;30.60;46.40;29.80;97095.00;;;;6067595;23;20259;-82
2023/05/26 10:06:52;;;;;;;3.25;2.95;;;30.70;46.90;29.90;97104.00;;;;6067308;23;20243;-82
2023/05/26 10:09:36;;;;;;;3.28;2.75;;;30.90;45.80;30.00;97093.00;;;;6069267;23;20178;-82
2023/05/26 10:12:07;;;;;;;3.30;3.00;;;31.10;44.80;30.10;97098.00;;;;6043937;23;20160;-82
2023/05/26 10:14:38;;;;;;;2.95;2.67;;;31.20;45.00;30.20;97102.00;;;;6043487;23;20276;-82
2023/05/26 10:17:06;;;;;;;4.30;2.30;;;31.20;44.80;30.10;97093.00;;;;6044286;23;20202;-82
2023/05/26 10:19:34;;;;;;;3.03;2.83;;;31.20;44.80;30.20;97093.00;;;;6069908;23;20207;-82
2023/05/26 10:22:12;;;;;;;2.55;2.35;;;31.20;45.00;30.20;97096.00;;;;6068430;23;20196;-83
2023/05/26 10:24:47;;;;;;;3.72;2.72;;;31.20;44.30;30.30;97095.00;;;;6069025;23;20294;-82
2023/05/26 10:27:26;;;;;;;4.68;2.92;;;31.20;44.00;30.30;97101.00;;;;6043022;23;20182;-83
2023/05/26 10:30:01;;;;;;;5.43;3.28;;;31.20;43.80;30.40;97090.00;;;;6071769;23;20160;-81
2023/05/26 10:32:46;;;;;;;2.80;2.50;;;31.20;43.70;30.40;97096.00;;;;6068420;23;20183;-82
2023/05/26 10:35:28;;;;;;;3.75;2.75;;;31.20;44.00;30.50;97092.00;;;;6068350;23;20207;-81
2023/05/26 10:38:11;;;;;;;2.80;2.60;;;31.20;43.40;30.50;97095.00;;;;6069379;23;20183;-82
2023/05/26 10:40:43;;;;;;;2.83;2.63;;;31.20;44.30;30.60;97091.00;;;;6043122;23;20179;-82
2023/05/26 10:43:22;;;;;;;3.30;2.33;;;31.20;44.40;30.60;97084.00;;;;6045268;23;20200;-83
2023/05/26 10:45:54;;;;;;;2.58;2.38;;;31.20;43.80;30.70;97085.00;;;;6068885;23;20235;-83
2023/05/26 10:48:25;;;;;;;2.95;2.28;;;31.20;43.80;30.70;97081.00;;;;6069206;23;20191;-84
2023/05/26 10:51:25;;;;;;;5.65;2.83;;;31.20;44.00;30.60;97080.00;;;;6069187;23;20199;-84
2023/05/26 10:53:56;;;;;;;2.55;2.35;;;31.20;44.10;30.60;97082.00;;;;6069730;23;20275;-82
2023/05/26 10:56:35;;;;;;;2.92;2.72;;;31.20;44.30;30.60;97085.00;;;;6044305;23;20228;-83
2023/05/26 10:59:04;;;;;;;2.67;2.47;;;31.10;43.80;30.50;97079.00;;;;6071117;23;20207;-83
2023/05/26 11:01:34;;;;;;;2.83;2.45;;;31.10;43.50;30.40;97082.00;;;;6070340;23;20557;-84
2023/05/26 11:04:09;;;;;;;4.07;2.20;;;31.00;43.50;30.30;97078.00;;;;6069632;23;20276;-85